• Join FlightAware (Why Join?)
  • Login
  • US Flag 
05:43PM EST


 

Airport Tracker/Info


-or-


 

Live Flight TrackerFlight Track Log ✈ EZY6723 ✈ 11-Apr-2013 ✈ EGAA / BFS - LFPG / CDG

Flight Track Log - Related Links

Times and Time Zones

All times are in EDT time to prevent confusion due to time zone crossing. See the EZY6723 flight status page for this flight to view local times or setup timezone preferences in your user account.

Time Position Orientation Groundspeed Altitude Reporting Facility
EDT Latitude Longitude Course Direction KTS MPH feet Rate Location/Type
08:36AM 54.0396 -5.0838 133° Southeast  Level Estimated
08:37AM 53.9829 -4.9825 134° Southeast  Level Estimated
08:38AM 53.9261 -4.8816 134° Southeast  Level Estimated
08:39AM 53.8692 -4.7809 134° Southeast  Level Estimated
08:40AM 53.8123 -4.6804 134° Southeast  Level Estimated
08:41AM 53.7552 -4.5803 134° Southeast  Level Estimated
08:42AM 53.6981 -4.4804 134° Southeast  Level Estimated
08:43AM 53.6409 -4.3808 134° Southeast  Level Estimated
08:44AM 53.5836 -4.2815 134° Southeast  Level Estimated
08:45AM 53.5263 -4.1824 134° Southeast  Level Estimated
08:46AM 53.4642 -4.0758 134° Southeast  Level Estimated
08:47AM 53.4021 -3.9695 134° Southeast  Level Estimated
08:48AM 53.3399 -3.8635 134° Southeast  Level Estimated
08:49AM 53.2776 -3.7578 135° Southeast  Level Estimated
08:50AM 53.2034 -3.6324 135° Southeast  Level Estimated
08:51AM 53.1291 -3.5076 135° Southeast  Level Estimated
08:52AM 53.0546 -3.3831 135° Southeast  Level Estimated
08:53AM 52.9800 -3.2591 135° Southeast  Level Estimated
08:54AM 52.9053 -3.1355 135° Southeast  Level Estimated
08:55AM 52.8304 -3.0124 135° Southeast  Level Estimated
08:56AM 52.7554 -2.8896 135° Southeast  Level Estimated
08:57AM 52.6803 -2.7673 135° Southeast  Level Estimated
08:58AM 52.6051 -2.6454 135° Southeast  Level Estimated
08:59AM 52.5297 -2.5240 136° Southeast  Level Estimated
09:00AM 52.4543 -2.4029 136° Southeast  Level Estimated
09:01AM 52.3787 -2.2822 136° Southeast  Level Estimated
09:02AM 52.3029 -2.1620 136° Southeast  Level Estimated
09:03AM 52.2271 -2.0422 136° Southeast  Level Estimated
09:04AM 52.1511 -1.9228 136° Southeast  Level Estimated
09:05AM 52.0750 -1.8038 136° Southeast  Level Estimated
09:06AM 51.9988 -1.6852 136° Southeast  Level Estimated
09:07AM 51.9225 -1.5670 136° Southeast  Level Estimated
09:08AM 51.8460 -1.4492 136° Southeast  Level Estimated
09:09AM 51.7695 -1.3318 136° Southeast  Level Estimated
09:10AM 51.6928 -1.2148 137° Southeast  Level Estimated
09:11AM 51.6160 -1.0982 137° Southeast  Level Estimated
09:12AM 51.5391 -0.9820 137° Southeast  Level Estimated
09:13AM 51.4620 -0.8662 137° Southeast  Level Estimated
09:14AM 51.3849 -0.7508 137° Southeast  Level Estimated
09:15AM 51.3077 -0.6357 137° Southeast  Level Estimated
09:16AM 51.2303 -0.5211 137° Southeast  Level Estimated
09:17AM 51.1528 -0.4068 137° Southeast  Level Estimated
09:18AM 51.0752 -0.2930 137° Southeast  Level Estimated
09:19AM 50.9975 -0.1795 137° Southeast  Level Estimated
09:20AM 50.9197 -0.0663 137° Southeast  Level Estimated
09:21AM 50.8418 0.0464 138° Southeast  Level Estimated
09:22AM 50.7638 0.1588 138° Southeast  Level Estimated
09:23AM 50.6856 0.2708 138° Southeast  Level Estimated
09:24AM 50.6074 0.3824 138° Southeast  Level Estimated
09:25AM 50.5290 0.4936 138° Southeast  Level Estimated
09:26AM 50.4506 0.6045 138° Southeast  Level Estimated
09:27AM 50.3720 0.7150 138° Southeast  Level Estimated
09:28AM 50.2934 0.8252 138° Southeast  Level Estimated
09:29AM 50.2146 0.9349 138° Southeast  Level Estimated
09:30AM 50.1357 1.0444 138° Southeast  Level Estimated
09:31AM 50.0568 1.1534 138° Southeast  Level Estimated
09:32AM 49.9777 1.2621 139° Southeast  Level Estimated
09:33AM 49.8985 1.3705 139° Southeast  Level Estimated
09:34AM 49.8193 1.4784 139° Southeast  Level Estimated
09:35AM 49.7399 1.5861 139° Southeast  Level Estimated
09:36AM 49.6604 1.6934 139° Southeast  Level Estimated
09:37AM 49.5809 1.8003 139° Southeast  Level Estimated
09:38AM 49.5012 1.9069 139° Southeast  Level Estimated
09:39AM 49.4349 1.9952 139° Southeast  Level Estimated
09:40AM 49.3685 2.0833 139° Southeast  Level Estimated
09:41AM 49.3020 2.1712 139° Southeast  Level Estimated
09:42AM 49.2355 2.2589 139° Southeast  Level Estimated
09:43AM 49.1689 2.3463 139° Southeast  Level Estimated
09:44AM 49.1023 2.4334 139° Southeast  Level Estimated
09:45AM 49.0356 2.5204 139° Southeast  Level Estimated
09:46AM 49.0128 2.5500 140° Southeast  Level Estimated
09:47AM 49.0128 2.5500 180° South  Level Estimated
09:48AM 49.0128 2.5500 180° South  Level Estimated
09:49AM 49.0128 2.5500 180° South  Level Estimated
09:50AM 49.0128 2.5500 180° South  Level Estimated
09:51AM 49.0128 2.5500 180° South  Level Estimated
09:52AM 49.0128 2.5500 180° South  Level Estimated
09:53AM 49.0128 2.5500 180° South  Level Estimated
09:54AM 49.0128 2.5500 180° South  Level Estimated
09:55AM 49.0128 2.5500 180° South  Level Estimated
09:56AM 49.0128 2.5500 180° South  Level Estimated
09:57AM 49.0128 2.5500 180° South  Level Estimated
09:58AM 49.0128 2.5500 180° South  Level Estimated
09:59AM 49.0128 2.5500 180° South  Level Estimated
10:00AM 49.0128 2.5500 180° South  Level Estimated
10:01AM 49.0128 2.5500 180° South  Level Estimated
10:02AM 49.0128 2.5500 180° South  Level Estimated
10:03AM 49.0128 2.5500 180° South  Level Estimated
10:04AM 49.0128 2.5500 180° South  Level Estimated
10:05AM 49.0128 2.5500 180° South  Level Estimated
10:06AM 49.0128 2.5500 180° South  Level Estimated
10:07AM 49.0128 2.5500 180° South  Level Estimated
10:08AM 49.0128 2.5500 180° South  Level Estimated
10:09AM 49.0128 2.5500 180° South  Level Estimated
10:10AM 49.0128 2.5500 180° South  Level Estimated